createdAt,value
2023-03-06T00:01:02.045Z,58.53
2023-03-06T00:03:30.105Z,65.30
2023-03-06T00:05:59.209Z,77.40
2023-03-06T00:08:29.262Z,83.90
2023-03-06T00:10:58.291Z,67.50
2023-03-06T00:13:30.223Z,65.47
2023-03-06T00:16:01.210Z,67.15
2023-03-06T00:18:29.548Z,55.67
2023-03-06T00:20:57.965Z,56.35
2023-03-06T00:23:26.232Z,71.95
2023-03-06T00:25:54.273Z,61.00
2023-03-06T00:28:22.433Z,68.90
2023-03-06T00:30:50.880Z,62.47
2023-03-06T00:33:19.201Z,60.85
2023-03-06T00:35:47.591Z,56.85
2023-03-06T00:38:15.730Z,53.30
2023-03-06T00:40:43.782Z,49.03
2023-03-06T00:43:15.108Z,64.75
2023-03-06T00:45:43.445Z,58.97
2023-03-06T00:48:11.405Z,68.32
2023-03-06T00:50:39.646Z,59.25
2023-03-06T00:53:08.553Z,63.63
2023-03-06T00:55:36.649Z,52.90
2023-03-06T00:58:05.157Z,61.03
2023-03-06T01:00:33.220Z,57.72
2023-03-06T01:03:01.141Z,90.78
2023-03-06T01:05:30.618Z,81.20
2023-03-06T01:08:00.578Z,83.78
2023-03-06T01:10:29.071Z,73.85
2023-03-06T01:12:57.605Z,61.13
2023-03-06T01:15:27.122Z,69.47
2023-03-06T01:17:55.623Z,71.70
2023-03-06T01:20:23.982Z,67.03
2023-03-06T01:22:52.183Z,64.27
2023-03-06T01:25:26.449Z,70.23
2023-03-06T01:27:54.595Z,67.23
2023-03-06T01:30:22.608Z,65.30
2023-03-06T01:32:50.690Z,59.17
2023-03-06T01:35:19.018Z,69.03
2023-03-06T01:37:46.951Z,63.73
2023-03-06T01:40:15.163Z,77.17
2023-03-06T01:42:43.392Z,66.50
2023-03-06T01:45:14.680Z,66.83
2023-03-06T01:47:42.852Z,63.10
2023-03-06T01:50:11.975Z,63.65
2023-03-06T01:52:56.241Z,66.03
2023-03-06T01:55:33.946Z,67.20
2023-03-06T01:58:11.293Z,76.90
2023-03-06T02:00:41.476Z,63.90
2023-03-06T02:03:22.912Z,71.67
2023-03-06T02:05:51.504Z,69.10
2023-03-06T02:08:23.372Z,72.57
2023-03-06T02:11:15.702Z,62.67
2023-03-06T02:13:45.085Z,73.63
2023-03-06T02:16:15.572Z,79.70
2023-03-06T02:18:46.119Z,65.70
2023-03-06T02:21:25.566Z,79.13
2023-03-06T02:23:56.316Z,82.33
2023-03-06T02:26:27.095Z,65.68
2023-03-06T02:31:31.287Z,83.17
2023-03-06T02:34:17.049Z,77.57
2023-03-06T02:37:02.788Z,84.90
2023-03-06T02:39:34.278Z,66.23
2023-03-06T02:44:35.265Z,83.47
2023-03-06T02:47:03.598Z,72.90
2023-03-06T02:49:31.608Z,59.67
2023-03-06T02:51:59.684Z,62.77
2023-03-06T02:54:27.853Z,73.73
2023-03-06T02:56:56.061Z,65.93
2023-03-06T02:59:24.778Z,73.13
2023-03-06T03:01:54.801Z,67.57
2023-03-06T03:04:22.811Z,64.17
2023-03-06T03:06:50.993Z,69.03
2023-03-06T03:09:19.628Z,80.87
2023-03-06T03:11:47.752Z,69.33
2023-03-06T03:14:16.996Z,77.83
2023-03-06T03:16:47.288Z,57.05
2023-03-06T03:19:15.311Z,71.53
2023-03-06T03:21:44.125Z,59.63
2023-03-06T03:24:12.200Z,60.33
2023-03-06T03:26:40.463Z,60.00
2023-03-06T03:29:13.755Z,69.78
2023-03-06T03:31:41.892Z,64.18
2023-03-06T03:34:10.375Z,71.40
2023-03-06T03:36:41.374Z,54.17
2023-03-06T03:39:11.140Z,82.17
2023-03-06T03:41:39.375Z,62.40
2023-03-06T03:44:10.980Z,66.67
2023-03-06T03:46:39.538Z,64.40
2023-03-06T03:49:12.557Z,87.57
2023-03-06T03:51:41.075Z,67.33
2023-03-06T03:54:09.476Z,74.13
2023-03-06T03:56:44.762Z,72.63
2023-03-06T03:59:26.803Z,76.23
2023-03-06T04:02:15.036Z,86.30
2023-03-06T04:04:51.560Z,68.20
2023-03-06T04:07:19.825Z,64.40
2023-03-06T04:09:48.212Z,55.83
2023-03-06T04:12:16.545Z,83.53
2023-03-06T04:14:44.795Z,64.70
2023-03-06T04:17:13.291Z,76.30
2023-03-06T04:19:41.331Z,74.73
2023-03-06T04:22:09.847Z,63.43
2023-03-06T04:24:39.975Z,66.20
2023-03-06T04:27:08.548Z,65.63
2023-03-06T04:29:37.545Z,52.25
2023-03-06T04:32:07.496Z,65.77
2023-03-06T04:34:35.905Z,64.07
2023-03-06T04:37:04.750Z,62.70
2023-03-06T04:39:32.867Z,72.93
2023-03-06T04:42:00.877Z,63.53
2023-03-06T04:44:29.098Z,69.40
2023-03-06T04:46:57.302Z,71.18
2023-03-06T04:49:25.200Z,77.45
2023-03-06T04:51:53.397Z,71.90
2023-03-06T04:54:21.551Z,91.97
2023-03-06T04:56:49.778Z,66.30
2023-03-06T04:59:18.046Z,84.88
2023-03-06T05:01:46.719Z,84.32
2023-03-06T05:04:15.113Z,105.00
2023-03-06T05:06:43.513Z,93.72
2023-03-06T05:09:11.600Z,85.38
2023-03-06T05:11:40.387Z,94.43
2023-03-06T05:14:11.356Z,88.47
2023-03-06T05:16:39.671Z,76.95
2023-03-06T05:19:08.252Z,83.78
2023-03-06T05:21:36.232Z,91.82
2023-03-06T05:24:04.541Z,74.97
2023-03-06T05:26:34.955Z,78.20
2023-03-06T05:29:03.273Z,79.63
2023-03-06T05:31:31.527Z,73.97
2023-03-06T05:34:00.758Z,71.50
2023-03-06T05:36:28.984Z,91.03
2023-03-06T05:38:57.411Z,80.28
2023-03-06T05:41:25.578Z,92.65
2023-03-06T05:43:54.111Z,81.95
2023-03-06T05:46:22.792Z,107.72
2023-03-06T05:48:53.312Z,99.15
2023-03-06T05:51:21.934Z,101.90
2023-03-06T05:53:50.385Z,89.03
2023-03-06T05:56:19.261Z,100.85
2023-03-06T05:58:48.032Z,84.05
2023-03-06T06:01:20.380Z,97.35
2023-03-06T06:03:49.194Z,79.57
2023-03-06T06:06:18.646Z,74.50
2023-03-06T06:08:46.984Z,70.05
2023-03-06T06:11:15.777Z,82.15
2023-03-06T06:13:43.994Z,83.07
2023-03-06T06:16:19.929Z,88.20
2023-03-06T06:18:48.406Z,79.65
2023-03-06T06:21:16.708Z,90.93
2023-03-06T06:23:44.980Z,76.82
2023-03-06T06:26:13.047Z,88.57
2023-03-06T06:28:41.148Z,75.07
2023-03-06T06:31:13.931Z,68.88
2023-03-06T06:33:42.565Z,90.63
2023-03-06T06:36:21.478Z,77.00
2023-03-06T06:38:49.948Z,61.42
2023-03-06T06:44:09.544Z,49.67
2023-03-06T06:49:35.786Z,44.15
2023-03-06T06:52:05.552Z,44.10
2023-03-06T06:54:34.843Z,41.05
2023-03-06T06:57:03.167Z,46.35
2023-03-06T06:59:31.337Z,45.17
2023-03-06T07:01:59.704Z,34.85
2023-03-06T07:04:28.435Z,42.33
2023-03-06T07:06:57.322Z,35.72
2023-03-06T07:09:25.477Z,43.42
2023-03-06T07:11:53.763Z,40.03
2023-03-06T07:14:22.268Z,42.95
2023-03-06T07:16:50.678Z,47.00
2023-03-06T07:19:19.068Z,63.72
2023-03-06T07:21:47.208Z,53.78
2023-03-06T07:24:15.521Z,60.30
2023-03-06T07:26:48.228Z,46.63
2023-03-06T07:29:16.751Z,50.03
2023-03-06T07:31:45.643Z,47.30
2023-03-06T07:34:15.296Z,49.95
2023-03-06T07:36:45.766Z,49.58
2023-03-06T07:39:14.933Z,57.42
2023-03-06T07:41:43.632Z,50.53
2023-03-06T07:44:11.780Z,58.05
2023-03-06T07:46:39.805Z,49.10
2023-03-06T07:49:11.566Z,45.47
2023-03-06T07:51:39.889Z,43.05
2023-03-06T07:54:08.359Z,43.00
2023-03-06T07:56:37.110Z,49.72
2023-03-06T07:59:05.510Z,51.63
2023-03-06T08:01:33.675Z,50.63
2023-03-06T08:04:02.290Z,44.35
2023-03-06T08:06:30.506Z,43.00
2023-03-06T08:08:59.378Z,48.88
2023-03-06T08:11:30.619Z,52.03
2023-03-06T08:13:59.694Z,39.90
2023-03-06T08:16:30.373Z,47.28
2023-03-06T08:18:59.030Z,45.95
2023-03-06T08:21:29.081Z,51.55
2023-03-06T08:23:58.801Z,53.10
2023-03-06T08:26:30.593Z,47.10
2023-03-06T08:31:39.645Z,52.15
2023-03-06T08:34:11.787Z,47.47
2023-03-06T08:36:41.382Z,44.03
2023-03-06T08:39:09.992Z,50.63
2023-03-06T08:41:38.803Z,47.30
2023-03-06T08:44:08.354Z,44.90
2023-03-06T08:46:37.504Z,44.17
2023-03-06T08:49:05.783Z,42.15
2023-03-06T08:51:33.959Z,44.40
2023-03-06T08:54:02.514Z,48.22
2023-03-06T08:56:33.821Z,44.13
2023-03-06T08:59:05.502Z,42.38
2023-03-06T09:01:37.952Z,39.38
2023-03-06T09:04:11.062Z,45.15
2023-03-06T09:06:42.899Z,40.00
2023-03-06T09:11:40.482Z,42.92
2023-03-06T09:14:08.918Z,40.70
2023-03-06T09:16:37.143Z,42.63
2023-03-06T09:19:05.517Z,33.63
2023-03-06T09:21:33.941Z,43.80
2023-03-06T09:24:02.498Z,36.03
2023-03-06T09:26:44.990Z,39.40
2023-03-06T09:29:16.460Z,48.20
2023-03-06T09:31:46.052Z,45.08
2023-03-06T09:34:14.649Z,50.05
2023-03-06T09:36:56.042Z,39.30
2023-03-06T09:39:27.530Z,48.08
2023-03-06T09:41:58.846Z,39.90
2023-03-06T09:44:35.114Z,45.60
2023-03-06T09:47:34.107Z,38.30
2023-03-06T09:50:38.799Z,41.25
2023-03-06T09:53:41.318Z,37.50
2023-03-06T09:56:19.683Z,36.03
2023-03-06T09:58:53.992Z,42.33
2023-03-06T10:01:38.371Z,34.80
2023-03-06T10:04:44.395Z,28.67
2023-03-06T10:07:28.582Z,35.25
2023-03-06T10:10:07.172Z,38.40
2023-03-06T10:12:42.741Z,33.90
2023-03-06T10:15:50.093Z,36.75
2023-03-06T10:18:18.486Z,44.03
2023-03-06T10:21:17.021Z,37.47
2023-03-06T10:24:09.838Z,45.28
2023-03-06T10:27:05.764Z,38.00
2023-03-06T10:30:01.649Z,35.80
2023-03-06T10:32:49.982Z,32.88
2023-03-06T10:35:50.438Z,51.00
2023-03-06T10:38:32.479Z,55.17
2023-03-06T10:41:28.381Z,32.28
2023-03-06T10:44:05.620Z,30.92
2023-03-06T10:46:42.614Z,48.00
2023-03-06T10:49:25.625Z,35.88
2023-03-06T10:52:15.240Z,24.90
2023-03-06T10:54:44.748Z,35.08
2023-03-06T10:57:31.726Z,36.97
2023-03-06T11:00:08.680Z,38.13
2023-03-06T11:02:41.358Z,37.42
2023-03-06T11:05:22.226Z,31.85
2023-03-06T11:07:57.371Z,34.38
2023-03-06T11:10:27.406Z,34.03
2023-03-06T11:13:21.961Z,30.08
2023-03-06T11:16:32.951Z,35.63
2023-03-06T11:19:07.512Z,40.08
2023-03-06T11:21:40.071Z,33.88
2023-03-06T11:24:21.730Z,34.88
2023-03-06T11:27:02.144Z,33.03
2023-03-06T11:29:45.141Z,36.15
2023-03-06T11:32:54.172Z,38.72
2023-03-06T11:35:28.814Z,39.35
2023-03-06T11:38:07.042Z,41.25
2023-03-06T11:40:50.502Z,38.15
2023-03-06T11:43:51.179Z,41.45
2023-03-06T11:46:29.339Z,50.05
2023-03-06T11:49:29.845Z,39.85
2023-03-06T11:52:04.816Z,43.65
2023-03-06T11:54:33.816Z,42.70
2023-03-06T11:57:22.798Z,37.00
2023-03-06T12:00:08.188Z,46.53
2023-03-06T12:03:20.439Z,36.35
2023-03-06T12:06:01.474Z,41.00
2023-03-06T12:09:21.243Z,40.15
2023-03-06T12:12:39.134Z,38.83
2023-03-06T12:15:44.732Z,36.90
2023-03-06T12:18:38.548Z,41.05
2023-03-06T12:21:54.343Z,39.63
2023-03-06T12:25:01.864Z,53.13
2023-03-06T12:28:04.247Z,37.10
2023-03-06T12:31:12.542Z,37.08
2023-03-06T12:34:38.772Z,39.15
2023-03-06T12:37:33.747Z,39.17
2023-03-06T12:40:32.703Z,30.88
2023-03-06T12:43:20.524Z,39.95
2023-03-06T12:45:53.539Z,45.97
2023-03-06T12:48:26.802Z,46.75
2023-03-06T12:50:55.626Z,42.85
2023-03-06T12:53:32.406Z,47.63
2023-03-06T12:56:02.472Z,45.35
2023-03-06T12:58:30.518Z,37.55
2023-03-06T13:01:28.332Z,39.70
2023-03-06T13:04:34.414Z,37.50
2023-03-06T13:07:37.276Z,34.17
2023-03-06T13:10:40.509Z,43.75
2023-03-06T13:13:44.888Z,43.90
2023-03-06T13:16:33.867Z,46.38
2023-03-06T13:19:11.567Z,44.38
2023-03-06T13:21:42.819Z,40.35
2023-03-06T13:24:37.870Z,47.70
2023-03-06T13:27:12.760Z,44.65
2023-03-06T13:29:40.772Z,43.47
2023-03-06T13:32:14.733Z,46.85
2023-03-06T13:34:50.381Z,46.25
2023-03-06T13:37:24.881Z,51.05
2023-03-06T13:39:56.006Z,42.28
2023-03-06T13:42:44.358Z,51.05
2023-03-06T13:45:26.190Z,51.30
2023-03-06T13:48:24.614Z,49.33
2023-03-06T13:50:49.834Z,41.72
2023-03-06T13:53:52.150Z,43.47
2023-03-06T13:56:44.722Z,42.42
2023-03-06T13:59:14.226Z,43.08
2023-03-06T14:02:01.128Z,40.03
2023-03-06T14:05:01.826Z,41.03
2023-03-06T14:07:40.788Z,43.78
2023-03-06T14:10:15.265Z,40.28
2023-03-06T14:12:50.048Z,34.83
2023-03-06T14:15:52.325Z,41.88
2023-03-06T14:18:34.132Z,40.30
2023-03-06T14:21:05.653Z,35.97
2023-03-06T14:23:45.690Z,35.92
2023-03-06T14:26:25.175Z,41.47
2023-03-06T14:28:53.821Z,42.08
2023-03-06T14:31:24.579Z,37.72
2023-03-06T14:34:01.300Z,43.27
2023-03-06T14:36:44.022Z,39.50
2023-03-06T14:39:38.581Z,40.80
2023-03-06T14:42:28.763Z,38.00
2023-03-06T14:45:19.213Z,38.28
2023-03-06T14:47:52.538Z,44.00
2023-03-06T14:50:31.250Z,40.97
2023-03-06T14:53:24.084Z,33.65
2023-03-06T14:56:07.938Z,44.15
2023-03-06T14:59:10.603Z,40.83
2023-03-06T15:01:43.741Z,34.90
2023-03-06T15:04:21.737Z,37.53
2023-03-06T15:06:51.824Z,35.20
2023-03-06T15:09:33.181Z,40.10
2023-03-06T15:12:09.024Z,39.90
2023-03-06T15:14:43.227Z,33.38
2023-03-06T15:17:32.437Z,32.90
2023-03-06T15:20:01.646Z,33.17
2023-03-06T15:22:38.036Z,30.45
2023-03-06T15:25:31.051Z,31.40
2023-03-06T15:28:38.824Z,26.95
2023-03-06T15:31:24.865Z,26.92
2023-03-06T15:34:12.397Z,27.13
2023-03-06T15:36:51.633Z,21.92
2023-03-06T15:39:40.715Z,29.15
2023-03-06T15:42:25.889Z,28.42
2023-03-06T15:45:03.625Z,23.40
2023-03-06T15:47:31.919Z,22.48
2023-03-06T15:50:00.171Z,22.15
2023-03-06T15:52:31.461Z,23.77
2023-03-06T15:54:59.860Z,17.80
2023-03-06T15:57:31.709Z,23.88
2023-03-06T16:00:01.668Z,23.02
2023-03-06T16:02:39.570Z,26.58
2023-03-06T16:05:17.281Z,31.23
2023-03-06T16:07:45.651Z,32.28
2023-03-06T16:10:17.943Z,32.50
2023-03-06T16:12:51.191Z,28.00
2023-03-06T16:15:29.308Z,31.38
2023-03-06T16:17:59.018Z,24.35
2023-03-06T16:20:29.357Z,32.22
2023-03-06T16:22:57.481Z,24.52
2023-03-06T16:25:28.535Z,24.95
2023-03-06T16:27:58.458Z,28.13
2023-03-06T16:30:29.938Z,28.55
2023-03-06T16:35:27.462Z,28.10
2023-03-06T16:37:55.945Z,23.88
2023-03-06T16:40:32.889Z,32.50
2023-03-06T16:43:01.186Z,24.65
2023-03-06T16:45:29.307Z,23.83
2023-03-06T16:47:59.424Z,21.55
2023-03-06T16:50:37.800Z,26.05
2023-03-06T16:53:08.119Z,26.45
2023-03-06T16:55:36.868Z,25.90
2023-03-06T16:58:05.525Z,26.80
2023-03-06T17:00:34.039Z,29.73
2023-03-06T17:03:02.958Z,40.05
2023-03-06T17:05:35.172Z,38.15
2023-03-06T17:08:04.683Z,39.72
2023-03-06T17:10:32.885Z,29.88
2023-03-06T17:13:01.627Z,33.25
2023-03-06T17:15:30.104Z,29.50
2023-03-06T17:17:59.225Z,32.35
2023-03-06T17:20:27.826Z,32.78
2023-03-06T17:22:56.713Z,39.30
2023-03-06T17:25:25.459Z,43.35
2023-03-06T17:27:54.793Z,49.97
2023-03-06T17:30:23.098Z,47.08
2023-03-06T17:32:51.326Z,36.38
2023-03-06T17:35:19.943Z,25.98
2023-03-06T17:37:48.655Z,24.92
2023-03-06T17:40:16.930Z,25.10
2023-03-06T17:42:45.742Z,24.45
2023-03-06T17:45:15.084Z,44.45
2023-03-06T17:47:43.421Z,48.17
2023-03-06T17:50:13.024Z,45.88
2023-03-06T17:52:41.792Z,44.17
2023-03-06T17:55:11.171Z,54.22
2023-03-06T17:57:39.926Z,51.33
2023-03-06T18:00:12.788Z,55.88
2023-03-06T18:02:41.245Z,53.33
2023-03-06T18:05:10.054Z,52.60
2023-03-06T18:07:38.617Z,49.35
2023-03-06T18:10:10.548Z,60.78
2023-03-06T18:12:39.145Z,61.97
2023-03-06T18:15:08.931Z,57.85
2023-03-06T18:17:38.816Z,58.92
2023-03-06T18:20:09.676Z,63.90
2023-03-06T18:22:38.105Z,62.87
2023-03-06T18:25:06.864Z,69.25
2023-03-06T18:27:37.404Z,77.13
2023-03-06T18:30:06.974Z,62.60
2023-03-06T18:32:36.551Z,48.88
2023-03-06T18:35:07.040Z,44.90
2023-03-06T18:37:35.349Z,40.85
2023-03-06T18:40:03.870Z,42.90
2023-03-06T18:42:36.274Z,46.03
2023-03-06T18:45:06.357Z,52.85
2023-03-06T18:47:35.076Z,44.83
2023-03-06T18:50:04.419Z,55.92
2023-03-06T18:52:35.128Z,53.05
2023-03-06T18:55:04.242Z,60.90
2023-03-06T18:57:32.450Z,63.50
2023-03-06T19:00:01.811Z,63.25
2023-03-06T19:02:30.484Z,61.22
2023-03-06T19:04:59.064Z,52.47
2023-03-06T19:07:27.615Z,60.75
2023-03-06T19:09:55.972Z,55.22
2023-03-06T19:12:24.239Z,62.35
2023-03-06T19:14:53.620Z,58.95
2023-03-06T19:17:24.937Z,58.70
2023-03-06T19:22:26.229Z,50.63
2023-03-06T19:24:55.091Z,42.08
2023-03-06T19:27:23.525Z,54.22
2023-03-06T19:29:52.682Z,48.10
2023-03-06T19:32:22.448Z,46.42
2023-03-06T19:34:51.539Z,41.42
2023-03-06T19:37:20.253Z,43.10
2023-03-06T19:39:49.048Z,43.45
2023-03-06T19:42:18.112Z,53.45
2023-03-06T19:44:46.519Z,46.75
2023-03-06T19:47:14.980Z,46.47
2023-03-06T19:49:43.520Z,47.28
2023-03-06T19:52:12.867Z,53.55
2023-03-06T19:54:42.205Z,44.10
2023-03-06T19:57:11.828Z,42.35
2023-03-06T19:59:40.638Z,44.58
2023-03-06T20:02:12.063Z,42.25
2023-03-06T20:04:40.587Z,47.90
2023-03-06T20:07:10.124Z,48.03
2023-03-06T20:09:40.341Z,46.58
2023-03-06T20:12:09.761Z,41.90
2023-03-06T20:14:39.420Z,53.28
2023-03-06T20:17:11.812Z,45.45
2023-03-06T20:19:41.818Z,51.63
2023-03-06T20:22:10.706Z,42.10
2023-03-06T20:24:41.322Z,52.42
2023-03-06T20:27:09.875Z,47.28
2023-03-06T20:29:43.744Z,41.22
2023-03-06T20:32:14.585Z,57.50
2023-03-06T20:34:44.173Z,48.23
2023-03-06T20:37:12.624Z,48.60
2023-03-06T20:39:41.295Z,44.70
2023-03-06T20:42:09.852Z,41.88
2023-03-06T20:44:38.871Z,41.08
2023-03-06T20:47:13.288Z,39.72
2023-03-06T20:49:42.384Z,35.83
2023-03-06T20:52:10.910Z,48.20
2023-03-06T20:54:40.147Z,33.92
2023-03-06T20:57:09.792Z,38.45
2023-03-06T20:59:38.944Z,32.88
2023-03-06T21:02:10.999Z,36.55
2023-03-06T21:04:41.312Z,34.13
2023-03-06T21:07:09.790Z,36.53
2023-03-06T21:09:41.635Z,29.88
2023-03-06T21:14:40.586Z,37.05
2023-03-06T21:17:13.975Z,33.13
2023-03-06T21:19:43.616Z,36.20
2023-03-06T21:22:14.085Z,45.60
2023-03-06T21:24:44.397Z,37.92
2023-03-06T21:27:13.300Z,38.95
2023-03-06T21:29:41.802Z,35.90
2023-03-06T21:32:10.677Z,46.40
2023-03-06T21:34:39.801Z,37.40
2023-03-06T21:37:09.161Z,45.15
2023-03-06T21:39:38.843Z,40.35
2023-03-06T21:42:11.184Z,42.45
2023-03-06T21:44:39.743Z,41.33
2023-03-06T21:47:09.013Z,43.08
2023-03-06T21:49:37.668Z,44.15
2023-03-06T21:52:06.611Z,46.03
2023-03-06T21:54:35.669Z,43.65
2023-03-06T21:57:04.710Z,40.65
2023-03-06T21:59:32.895Z,43.80
2023-03-06T22:02:02.160Z,51.97
2023-03-06T22:04:31.337Z,49.33
2023-03-06T22:06:59.895Z,42.42
2023-03-06T22:09:28.805Z,51.80
2023-03-06T22:11:57.998Z,39.92
2023-03-06T22:14:26.789Z,51.90
2023-03-06T22:16:57.000Z,45.55
2023-03-06T22:19:26.464Z,53.05
2023-03-06T22:21:55.943Z,45.58
2023-03-06T22:24:24.302Z,51.53
2023-03-06T22:26:52.847Z,53.47
2023-03-06T22:29:21.196Z,47.38
2023-03-06T22:31:49.684Z,46.75
2023-03-06T22:34:19.394Z,44.22
2023-03-06T22:36:48.526Z,43.30
2023-03-06T22:39:17.559Z,40.47
2023-03-06T22:41:47.483Z,37.67
2023-03-06T22:44:20.026Z,45.42
2023-03-06T22:46:49.536Z,40.72
2023-03-06T22:49:19.284Z,55.78
2023-03-06T22:51:48.334Z,48.60
2023-03-06T22:54:17.197Z,40.25
2023-03-06T22:56:45.489Z,38.35
2023-03-06T22:59:14.308Z,43.83
2023-03-06T23:01:43.824Z,40.60
2023-03-06T23:04:12.587Z,44.08
2023-03-06T23:06:43.420Z,34.83
2023-03-06T23:09:22.549Z,38.25
2023-03-06T23:12:11.629Z,43.22
2023-03-06T23:14:58.441Z,40.63
2023-03-06T23:17:45.258Z,41.72
2023-03-06T23:20:32.920Z,44.58
2023-03-06T23:23:20.064Z,47.40
2023-03-06T23:25:49.095Z,45.42
2023-03-06T23:28:17.639Z,51.85
2023-03-06T23:30:45.930Z,39.70
2023-03-06T23:33:14.098Z,50.22
2023-03-06T23:35:44.294Z,41.85
2023-03-06T23:38:13.344Z,42.63
2023-03-06T23:40:42.555Z,40.05
2023-03-06T23:43:10.572Z,45.70
2023-03-06T23:45:39.370Z,46.25
2023-03-06T23:48:09.669Z,46.17
2023-03-06T23:50:41.192Z,46.33
2023-03-06T23:53:09.330Z,47.38
2023-03-06T23:55:43.313Z,49.45
2023-03-06T23:58:12.327Z,40.65
